sensor_id;sensor_type;location;lat;lon;timestamp;P1;durP1;ratioP1;P2;durP2;ratioP2
74469;SDS011;62918;55.706;37.816;2022-10-23T00:00:24;11.15;;;5.75;;
74469;SDS011;62918;55.706;37.816;2022-10-23T00:00:55;12.07;;;5.68;;
74469;SDS011;62918;55.706;37.816;2022-10-23T00:01:30;11.13;;;5.60;;
74469;SDS011;62918;55.706;37.816;2022-10-23T00:02:02;8.75;;;5.50;;
74469;SDS011;62918;55.706;37.816;2022-10-23T00:02:33;10.00;;;5.88;;
74469;SDS011;62918;55.706;37.816;2022-10-23T00:03:04;10.38;;;5.72;;
74469;SDS011;62918;55.706;37.816;2022-10-23T00:03:34;9.50;;;5.28;;
74469;SDS011;62918;55.706;37.816;2022-10-23T00:04:06;10.30;;;5.22;;
74469;SDS011;62918;55.706;37.816;2022-10-23T00:04:41;8.75;;;5.28;;
74469;SDS011;62918;55.706;37.816;2022-10-23T00:05:11;9.43;;;5.97;;
74469;SDS011;62918;55.706;37.816;2022-10-23T00:05:42;10.75;;;5.55;;
74469;SDS011;62918;55.706;37.816;2022-10-23T00:06:14;9.48;;;5.97;;
74469;SDS011;62918;55.706;37.816;2022-10-23T00:06:44;8.90;;;5.28;;
74469;SDS011;62918;55.706;37.816;2022-10-23T00:07:15;10.77;;;5.85;;
74469;SDS011;62918;55.706;37.816;2022-10-23T00:07:49;13.05;;;5.82;;
74469;SDS011;62918;55.706;37.816;2022-10-23T00:08:21;10.13;;;5.75;;
74469;SDS011;62918;55.706;37.816;2022-10-23T00:08:51;10.55;;;5.78;;
74469;SDS011;62918;55.706;37.816;2022-10-23T00:09:23;10.93;;;5.65;;
74469;SDS011;62918;55.706;37.816;2022-10-23T00:09:53;10.00;;;5.53;;
74469;SDS011;62918;55.706;37.816;2022-10-23T00:10:25;14.10;;;6.35;;
74469;SDS011;62918;55.706;37.816;2022-10-23T00:11:27;9.07;;;5.10;;
74469;SDS011;62918;55.706;37.816;2022-10-23T00:11:59;10.75;;;5.43;;
74469;SDS011;62918;55.706;37.816;2022-10-23T00:12:29;11.52;;;5.90;;
74469;SDS011;62918;55.706;37.816;2022-10-23T00:13:00;11.13;;;5.57;;
74469;SDS011;62918;55.706;37.816;2022-10-23T00:13:31;10.55;;;5.90;;
74469;SDS011;62918;55.706;37.816;2022-10-23T00:14:02;11.23;;;5.70;;
74469;SDS011;62918;55.706;37.816;2022-10-23T00:14:34;8.90;;;5.32;;
74469;SDS011;62918;55.706;37.816;2022-10-23T00:15:05;10.63;;;6.00;;
74469;SDS011;62918;55.706;37.816;2022-10-23T00:15:36;9.02;;;5.45;;
74469;SDS011;62918;55.706;37.816;2022-10-23T00:16:07;8.52;;;5.70;;
74469;SDS011;62918;55.706;37.816;2022-10-23T00:16:38;12.48;;;5.97;;
74469;SDS011;62918;55.706;37.816;2022-10-23T00:17:09;10.82;;;5.72;;
74469;SDS011;62918;55.706;37.816;2022-10-23T00:17:41;8.98;;;5.60;;
74469;SDS011;62918;55.706;37.816;2022-10-23T00:18:11;9.88;;;5.97;;
74469;SDS011;62918;55.706;37.816;2022-10-23T00:18:42;10.82;;;5.90;;
74469;SDS011;62918;55.706;37.816;2022-10-23T00:19:13;9.80;;;6.03;;
74469;SDS011;62918;55.706;37.816;2022-10-23T00:19:43;9.23;;;5.72;;
74469;SDS011;62918;55.706;37.816;2022-10-23T00:20:14;8.95;;;5.65;;
74469;SDS011;62918;55.706;37.816;2022-10-23T00:20:46;11.02;;;5.90;;
74469;SDS011;62918;55.706;37.816;2022-10-23T00:21:16;11.52;;;5.78;;
74469;SDS011;62918;55.706;37.816;2022-10-23T00:21:47;9.13;;;5.55;;
74469;SDS011;62918;55.706;37.816;2022-10-23T00:22:18;11.40;;;5.88;;
74469;SDS011;62918;55.706;37.816;2022-10-23T00:22:48;9.43;;;5.88;;
74469;SDS011;62918;55.706;37.816;2022-10-23T00:23:19;9.35;;;5.90;;
74469;SDS011;62918;55.706;37.816;2022-10-23T00:23:49;10.88;;;5.38;;
74469;SDS011;62918;55.706;37.816;2022-10-23T00:24:20;11.48;;;5.85;;
74469;SDS011;62918;55.706;37.816;2022-10-23T00:24:50;9.57;;;5.63;;
74469;SDS011;62918;55.706;37.816;2022-10-23T00:25:21;12.68;;;6.25;;
74469;SDS011;62918;55.706;37.816;2022-10-23T00:25:52;10.18;;;5.88;;
74469;SDS011;62918;55.706;37.816;2022-10-23T00:26:22;11.73;;;6.43;;
74469;SDS011;62918;55.706;37.816;2022-10-23T00:26:56;9.73;;;6.03;;
74469;SDS011;62918;55.706;37.816;2022-10-23T00:27:26;12.63;;;6.05;;
74469;SDS011;62918;55.706;37.816;2022-10-23T00:27:57;8.90;;;5.90;;
74469;SDS011;62918;55.706;37.816;2022-10-23T00:28:28;11.68;;;5.78;;
74469;SDS011;62918;55.706;37.816;2022-10-23T00:28:58;8.77;;;6.03;;
74469;SDS011;62918;55.706;37.816;2022-10-23T00:29:29;9.98;;;5.80;;
74469;SDS011;62918;55.706;37.816;2022-10-23T00:30:00;8.85;;;5.78;;
74469;SDS011;62918;55.706;37.816;2022-10-23T00:30:31;10.35;;;5.57;;
74469;SDS011;62918;55.706;37.816;2022-10-23T00:31:02;10.77;;;6.07;;
74469;SDS011;62918;55.706;37.816;2022-10-23T00:31:34;10.20;;;5.90;;
74469;SDS011;62918;55.706;37.816;2022-10-23T00:32:05;9.00;;;5.65;;
74469;SDS011;62918;55.706;37.816;2022-10-23T00:32:35;10.70;;;6.60;;
74469;SDS011;62918;55.706;37.816;2022-10-23T00:33:06;10.55;;;6.38;;
74469;SDS011;62918;55.706;37.816;2022-10-23T00:33:37;10.90;;;5.38;;
74469;SDS011;62918;55.706;37.816;2022-10-23T00:34:07;9.32;;;5.80;;
74469;SDS011;62918;55.706;37.816;2022-10-23T00:34:38;11.25;;;6.13;;
74469;SDS011;62918;55.706;37.816;2022-10-23T00:35:09;9.02;;;5.63;;
74469;SDS011;62918;55.706;37.816;2022-10-23T00:35:40;11.70;;;6.35;;
74469;SDS011;62918;55.706;37.816;2022-10-23T00:36:11;11.50;;;5.97;;
74469;SDS011;62918;55.706;37.816;2022-10-23T00:36:43;8.90;;;6.15;;
74469;SDS011;62918;55.706;37.816;2022-10-23T00:37:14;9.88;;;5.50;;
74469;SDS011;62918;55.706;37.816;2022-10-23T00:37:44;10.18;;;5.35;;
74469;SDS011;62918;55.706;37.816;2022-10-23T00:38:15;8.48;;;5.53;;
74469;SDS011;62918;55.706;37.816;2022-10-23T00:38:45;9.32;;;6.43;;
74469;SDS011;62918;55.706;37.816;2022-10-23T00:39:17;10.25;;;5.90;;
74469;SDS011;62918;55.706;37.816;2022-10-23T00:39:47;10.00;;;6.30;;
74469;SDS011;62918;55.706;37.816;2022-10-23T00:40:18;9.32;;;6.20;;
74469;SDS011;62918;55.706;37.816;2022-10-23T00:40:48;10.75;;;5.82;;
74469;SDS011;62918;55.706;37.816;2022-10-23T00:41:21;11.75;;;5.65;;
74469;SDS011;62918;55.706;37.816;2022-10-23T00:41:54;13.13;;;5.97;;
74469;SDS011;62918;55.706;37.816;2022-10-23T00:42:25;9.88;;;5.32;;
74469;SDS011;62918;55.706;37.816;2022-10-23T00:42:55;7.68;;;5.90;;
74469;SDS011;62918;55.706;37.816;2022-10-23T00:43:27;10.35;;;5.72;;
74469;SDS011;62918;55.706;37.816;2022-10-23T00:45:50;10.88;;;5.88;;
74469;SDS011;62918;55.706;37.816;2022-10-23T00:46:21;8.52;;;5.68;;
74469;SDS011;62918;55.706;37.816;2022-10-23T00:46:52;10.43;;;6.63;;
74469;SDS011;62918;55.706;37.816;2022-10-23T00:47:22;8.32;;;5.82;;
74469;SDS011;62918;55.706;37.816;2022-10-23T00:47:53;8.95;;;6.00;;
74469;SDS011;62918;55.706;37.816;2022-10-23T00:48:24;11.38;;;5.93;;
74469;SDS011;62918;55.706;37.816;2022-10-23T00:48:56;9.20;;;6.80;;
74469;SDS011;62918;55.706;37.816;2022-10-23T00:49:27;9.15;;;6.53;;
74469;SDS011;62918;55.706;37.816;2022-10-23T00:49:58;9.13;;;6.00;;
74469;SDS011;62918;55.706;37.816;2022-10-23T00:50:31;8.75;;;5.93;;
74469;SDS011;62918;55.706;37.816;2022-10-23T00:51:02;10.30;;;6.20;;
74469;SDS011;62918;55.706;37.816;2022-10-23T00:51:40;10.20;;;5.95;;
74469;SDS011;62918;55.706;37.816;2022-10-23T00:52:13;8.88;;;6.03;;
74469;SDS011;62918;55.706;37.816;2022-10-23T00:52:45;9.82;;;5.82;;
74469;SDS011;62918;55.706;37.816;2022-10-23T00:53:18;9.20;;;6.07;;
74469;SDS011;62918;55.706;37.816;2022-10-23T00:53:52;9.93;;;5.85;;
74469;SDS011;62918;55.706;37.816;2022-10-23T00:54:26;9.55;;;5.78;;
74469;SDS011;62918;55.706;37.816;2022-10-23T00:55:00;10.00;;;5.88;;
74469;SDS011;62918;55.706;37.816;2022-10-23T00:55:31;10.43;;;6.20;;
74469;SDS011;62918;55.706;37.816;2022-10-23T00:56:03;12.57;;;6.32;;
74469;SDS011;62918;55.706;37.816;2022-10-23T00:56:34;10.00;;;6.38;;
74469;SDS011;62918;55.706;37.816;2022-10-23T00:57:12;12.13;;;6.20;;
74469;SDS011;62918;55.706;37.816;2022-10-23T00:57:44;9.23;;;6.05;;
74469;SDS011;62918;55.706;37.816;2022-10-23T00:58:18;9.13;;;5.90;;
74469;SDS011;62918;55.706;37.816;2022-10-23T00:59:19;8.10;;;5.50;;
74469;SDS011;62918;55.706;37.816;2022-10-23T00:59:50;9.10;;;5.43;;
74469;SDS011;62918;55.706;37.816;2022-10-23T01:00:28;8.68;;;5.47;;
74469;SDS011;62918;55.706;37.816;2022-10-23T01:01:18;8.73;;;5.70;;
74469;SDS011;62918;55.706;37.816;2022-10-23T01:01:50;7.88;;;5.72;;
74469;SDS011;62918;55.706;37.816;2022-10-23T01:02:21;9.65;;;6.00;;
74469;SDS011;62918;55.706;37.816;2022-10-23T01:02:52;12.07;;;5.95;;
74469;SDS011;62918;55.706;37.816;2022-10-23T01:03:56;9.40;;;5.15;;
74469;SDS011;62918;55.706;37.816;2022-10-23T01:04:27;12.70;;;6.10;;
74469;SDS011;62918;55.706;37.816;2022-10-23T01:04:58;10.40;;;5.60;;
74469;SDS011;62918;55.706;37.816;2022-10-23T01:05:30;9.38;;;5.50;;
74469;SDS011;62918;55.706;37.816;2022-10-23T01:06:56;10.25;;;5.90;;
74469;SDS011;62918;55.706;37.816;2022-10-23T01:08:33;9.23;;;5.25;;
74469;SDS011;62918;55.706;37.816;2022-10-23T01:10:16;10.25;;;5.97;;
74469;SDS011;62918;55.706;37.816;2022-10-23T01:11:29;8.02;;;5.03;;
74469;SDS011;62918;55.706;37.816;2022-10-23T01:12:13;8.48;;;5.35;;
74469;SDS011;62918;55.706;37.816;2022-10-23T01:13:07;10.27;;;5.63;;
74469;SDS011;62918;55.706;37.816;2022-10-23T01:15:45;9.15;;;5.05;;
74469;SDS011;62918;55.706;37.816;2022-10-23T01:16:36;8.05;;;5.20;;
74469;SDS011;62918;55.706;37.816;2022-10-23T01:17:12;10.82;;;5.60;;
74469;SDS011;62918;55.706;37.816;2022-10-23T01:17:54;7.72;;;5.43;;
74469;SDS011;62918;55.706;37.816;2022-10-23T01:19:26;9.63;;;5.93;;
74469;SDS011;62918;55.706;37.816;2022-10-23T01:20:10;10.55;;;5.88;;
74469;SDS011;62918;55.706;37.816;2022-10-23T01:24:55;10.10;;;5.38;;
74469;SDS011;62918;55.706;37.816;2022-10-23T01:27:26;10.32;;;5.88;;
74469;SDS011;62918;55.706;37.816;2022-10-23T01:28:04;9.80;;;6.00;;
74469;SDS011;62918;55.706;37.816;2022-10-23T01:29:18;8.95;;;5.93;;
74469;SDS011;62918;55.706;37.816;2022-10-23T01:29:57;10.88;;;6.22;;
74469;SDS011;62918;55.706;37.816;2022-10-23T01:30:30;11.55;;;5.97;;
74469;SDS011;62918;55.706;37.816;2022-10-23T01:31:03;9.05;;;6.15;;
74469;SDS011;62918;55.706;37.816;2022-10-23T01:31:42;10.27;;;6.00;;
74469;SDS011;62918;55.706;37.816;2022-10-23T01:32:26;9.60;;;5.85;;
74469;SDS011;62918;55.706;37.816;2022-10-23T01:33:43;9.10;;;5.70;;
74469;SDS011;62918;55.706;37.816;2022-10-23T01:34:22;8.80;;;5.63;;
74469;SDS011;62918;55.706;37.816;2022-10-23T01:35:05;10.65;;;5.40;;
74469;SDS011;62918;55.706;37.816;2022-10-23T01:35:41;8.98;;;5.72;;
74469;SDS011;62918;55.706;37.816;2022-10-23T01:36:13;8.65;;;5.88;;
74469;SDS011;62918;55.706;37.816;2022-10-23T01:36:47;10.10;;;6.15;;
74469;SDS011;62918;55.706;37.816;2022-10-23T01:37:21;9.32;;;6.45;;
74469;SDS011;62918;55.706;37.816;2022-10-23T01:38:46;12.02;;;6.40;;
74469;SDS011;62918;55.706;37.816;2022-10-23T01:39:20;11.82;;;7.07;;
74469;SDS011;62918;55.706;37.816;2022-10-23T01:39:54;11.30;;;6.80;;
74469;SDS011;62918;55.706;37.816;2022-10-23T01:40:36;11.23;;;6.60;;
74469;SDS011;62918;55.706;37.816;2022-10-23T01:41:20;10.20;;;6.07;;
74469;SDS011;62918;55.706;37.816;2022-10-23T01:41:54;11.05;;;6.45;;
74469;SDS011;62918;55.706;37.816;2022-10-23T01:42:38;10.10;;;6.57;;
74469;SDS011;62918;55.706;37.816;2022-10-23T01:43:15;9.25;;;6.55;;
74469;SDS011;62918;55.706;37.816;2022-10-23T01:44:46;11.32;;;6.95;;
74469;SDS011;62918;55.706;37.816;2022-10-23T01:45:23;9.27;;;6.38;;
74469;SDS011;62918;55.706;37.816;2022-10-23T01:46:04;11.85;;;6.60;;
74469;SDS011;62918;55.706;37.816;2022-10-23T01:46:38;13.30;;;6.68;;
74469;SDS011;62918;55.706;37.816;2022-10-23T01:47:11;14.00;;;6.78;;
74469;SDS011;62918;55.706;37.816;2022-10-23T01:47:44;13.65;;;7.28;;
74469;SDS011;62918;55.706;37.816;2022-10-23T01:48:20;12.13;;;7.28;;
74469;SDS011;62918;55.706;37.816;2022-10-23T01:48:54;9.48;;;6.55;;
74469;SDS011;62918;55.706;37.816;2022-10-23T01:49:26;9.10;;;6.22;;
74469;SDS011;62918;55.706;37.816;2022-10-23T01:49:58;10.10;;;6.57;;
74469;SDS011;62918;55.706;37.816;2022-10-23T01:50:30;10.75;;;7.15;;
74469;SDS011;62918;55.706;37.816;2022-10-23T01:51:03;11.48;;;7.35;;
74469;SDS011;62918;55.706;37.816;2022-10-23T01:51:37;13.60;;;7.57;;
74469;SDS011;62918;55.706;37.816;2022-10-23T01:52:10;10.90;;;6.95;;
74469;SDS011;62918;55.706;37.816;2022-10-23T01:52:43;11.50;;;7.13;;
74469;SDS011;62918;55.706;37.816;2022-10-23T01:53:13;13.68;;;6.80;;
74469;SDS011;62918;55.706;37.816;2022-10-23T01:53:45;14.68;;;7.25;;
74469;SDS011;62918;55.706;37.816;2022-10-23T01:54:18;13.15;;;6.68;;
74469;SDS011;62918;55.706;37.816;2022-10-23T01:54:53;12.70;;;7.00;;
74469;SDS011;62918;55.706;37.816;2022-10-23T01:55:28;13.18;;;7.57;;
74469;SDS011;62918;55.706;37.816;2022-10-23T01:56:01;11.43;;;7.15;;
74469;SDS011;62918;55.706;37.816;2022-10-23T01:56:34;10.52;;;7.00;;
74469;SDS011;62918;55.706;37.816;2022-10-23T01:57:07;15.98;;;7.10;;
74469;SDS011;62918;55.706;37.816;2022-10-23T01:57:42;11.70;;;7.30;;
74469;SDS011;62918;55.706;37.816;2022-10-23T01:58:14;10.45;;;6.55;;
74469;SDS011;62918;55.706;37.816;2022-10-23T01:58:48;9.50;;;6.85;;
74469;SDS011;62918;55.706;37.816;2022-10-23T01:59:27;11.60;;;7.20;;
74469;SDS011;62918;55.706;37.816;2022-10-23T02:00:08;12.45;;;6.70;;
74469;SDS011;62918;55.706;37.816;2022-10-23T02:00:41;11.68;;;7.22;;
74469;SDS011;62918;55.706;37.816;2022-10-23T02:01:14;12.32;;;6.80;;
74469;SDS011;62918;55.706;37.816;2022-10-23T02:01:48;13.10;;;7.20;;
74469;SDS011;62918;55.706;37.816;2022-10-23T02:02:22;10.93;;;6.93;;
74469;SDS011;62918;55.706;37.816;2022-10-23T02:02:54;13.07;;;7.55;;
74469;SDS011;62918;55.706;37.816;2022-10-23T02:03:26;10.88;;;7.22;;
74469;SDS011;62918;55.706;37.816;2022-10-23T02:04:00;12.57;;;7.72;;
74469;SDS011;62918;55.706;37.816;2022-10-23T02:04:35;11.30;;;6.80;;
74469;SDS011;62918;55.706;37.816;2022-10-23T02:05:17;13.48;;;6.97;;
74469;SDS011;62918;55.706;37.816;2022-10-23T02:05:51;14.52;;;7.72;;
74469;SDS011;62918;55.706;37.816;2022-10-23T02:06:21;13.00;;;7.43;;
74469;SDS011;62918;55.706;37.816;2022-10-23T02:06:52;13.43;;;7.35;;
74469;SDS011;62918;55.706;37.816;2022-10-23T02:07:23;14.57;;;7.20;;
74469;SDS011;62918;55.706;37.816;2022-10-23T02:07:54;15.60;;;7.63;;
74469;SDS011;62918;55.706;37.816;2022-10-23T02:08:25;17.60;;;7.35;;
74469;SDS011;62918;55.706;37.816;2022-10-23T02:08:56;11.82;;;7.05;;
74469;SDS011;62918;55.706;37.816;2022-10-23T02:09:27;14.85;;;6.95;;
74469;SDS011;62918;55.706;37.816;2022-10-23T02:09:57;15.30;;;7.32;;
74469;SDS011;62918;55.706;37.816;2022-10-23T02:10:39;14.02;;;7.53;;
74469;SDS011;62918;55.706;37.816;2022-10-23T02:11:16;10.65;;;7.03;;
74469;SDS011;62918;55.706;37.816;2022-10-23T02:11:56;13.35;;;7.35;;
74469;SDS011;62918;55.706;37.816;2022-10-23T02:12:31;13.45;;;6.75;;
74469;SDS011;62918;55.706;37.816;2022-10-23T02:14:11;15.45;;;8.05;;
74469;SDS011;62918;55.706;37.816;2022-10-23T02:15:50;13.63;;;7.10;;
74469;SDS011;62918;55.706;37.816;2022-10-23T02:16:01;12.05;;;7.30;;
74469;SDS011;62918;55.706;37.816;2022-10-23T02:16:46;12.90;;;7.38;;
74469;SDS011;62918;55.706;37.816;2022-10-23T02:20:35;13.25;;;8.05;;
74469;SDS011;62918;55.706;37.816;2022-10-23T02:21:11;16.00;;;7.55;;
74469;SDS011;62918;55.706;37.816;2022-10-23T02:23:44;15.32;;;7.82;;
74469;SDS011;62918;55.706;37.816;2022-10-23T02:24:33;13.45;;;7.45;;
74469;SDS011;62918;55.706;37.816;2022-10-23T02:25:10;14.18;;;7.32;;
74469;SDS011;62918;55.706;37.816;2022-10-23T02:25:50;12.07;;;7.07;;
74469;SDS011;62918;55.706;37.816;2022-10-23T02:27:09;13.60;;;7.47;;
74469;SDS011;62918;55.706;37.816;2022-10-23T02:27:44;14.60;;;8.00;;
74469;SDS011;62918;55.706;37.816;2022-10-23T02:28:27;12.63;;;7.72;;
74469;SDS011;62918;55.706;37.816;2022-10-23T02:29:06;13.10;;;7.25;;
74469;SDS011;62918;55.706;37.816;2022-10-23T02:29:44;13.63;;;7.57;;
74469;SDS011;62918;55.706;37.816;2022-10-23T02:30:25;11.23;;;7.47;;
74469;SDS011;62918;55.706;37.816;2022-10-23T02:30:58;11.88;;;8.13;;
74469;SDS011;62918;55.706;37.816;2022-10-23T02:31:32;14.13;;;8.40;;
74469;SDS011;62918;55.706;37.816;2022-10-23T02:32:02;17.50;;;8.18;;
74469;SDS011;62918;55.706;37.816;2022-10-23T02:32:34;13.70;;;8.23;;
74469;SDS011;62918;55.706;37.816;2022-10-23T02:33:08;15.82;;;7.93;;
74469;SDS011;62918;55.706;37.816;2022-10-23T02:33:41;12.38;;;8.25;;
74469;SDS011;62918;55.706;37.816;2022-10-23T02:34:14;15.75;;;8.52;;
74469;SDS011;62918;55.706;37.816;2022-10-23T02:34:45;16.92;;;8.52;;
74469;SDS011;62918;55.706;37.816;2022-10-23T02:35:16;13.27;;;8.05;;
74469;SDS011;62918;55.706;37.816;2022-10-23T02:35:49;17.80;;;8.82;;
74469;SDS011;62918;55.706;37.816;2022-10-23T02:36:19;15.25;;;8.15;;
74469;SDS011;62918;55.706;37.816;2022-10-23T02:36:50;14.38;;;8.65;;
74469;SDS011;62918;55.706;37.816;2022-10-23T02:37:21;14.38;;;8.07;;
74469;SDS011;62918;55.706;37.816;2022-10-23T02:37:58;16.73;;;9.00;;
74469;SDS011;62918;55.706;37.816;2022-10-23T02:38:37;13.75;;;8.52;;
74469;SDS011;62918;55.706;37.816;2022-10-23T02:39:09;15.13;;;8.70;;
74469;SDS011;62918;55.706;37.816;2022-10-23T02:39:40;16.25;;;8.18;;
74469;SDS011;62918;55.706;37.816;2022-10-23T02:40:11;14.00;;;8.48;;
74469;SDS011;62918;55.706;37.816;2022-10-23T02:40:41;13.45;;;8.50;;
74469;SDS011;62918;55.706;37.816;2022-10-23T02:41:52;14.13;;;8.80;;
74469;SDS011;62918;55.706;37.816;2022-10-23T02:42:32;15.07;;;8.25;;
74469;SDS011;62918;55.706;37.816;2022-10-23T02:43:25;15.05;;;7.57;;
74469;SDS011;62918;55.706;37.816;2022-10-23T02:44:08;16.80;;;7.97;;
74469;SDS011;62918;55.706;37.816;2022-10-23T02:44:51;15.07;;;8.27;;
74469;SDS011;62918;55.706;37.816;2022-10-23T02:45:28;15.70;;;8.93;;
74469;SDS011;62918;55.706;37.816;2022-10-23T02:46:06;14.98;;;8.40;;
74469;SDS011;62918;55.706;37.816;2022-10-23T02:48:01;14.45;;;8.57;;
74469;SDS011;62918;55.706;37.816;2022-10-23T02:48:46;11.80;;;7.40;;
74469;SDS011;62918;55.706;37.816;2022-10-23T02:51:06;14.27;;;7.88;;
74469;SDS011;62918;55.706;37.816;2022-10-23T02:52:22;15.25;;;7.55;;
74469;SDS011;62918;55.706;37.816;2022-10-23T02:55:07;14.77;;;8.15;;
74469;SDS011;62918;55.706;37.816;2022-10-23T02:56:55;15.05;;;7.72;;
74469;SDS011;62918;55.706;37.816;2022-10-23T02:58:30;14.07;;;7.95;;
74469;SDS011;62918;55.706;37.816;2022-10-23T03:00:26;16.48;;;8.30;;
74469;SDS011;62918;55.706;37.816;2022-10-23T03:01:10;15.38;;;8.07;;
74469;SDS011;62918;55.706;37.816;2022-10-23T03:01:52;18.20;;;7.82;;
74469;SDS011;62918;55.706;37.816;2022-10-23T03:02:36;13.82;;;7.70;;
74469;SDS011;62918;55.706;37.816;2022-10-23T03:03:10;14.68;;;8.55;;
74469;SDS011;62918;55.706;37.816;2022-10-23T03:03:54;14.45;;;8.05;;
74469;SDS011;62918;55.706;37.816;2022-10-23T03:04:28;14.05;;;8.82;;
74469;SDS011;62918;55.706;37.816;2022-10-23T03:05:01;14.18;;;8.18;;
74469;SDS011;62918;55.706;37.816;2022-10-23T03:05:35;14.25;;;8.27;;
74469;SDS011;62918;55.706;37.816;2022-10-23T03:06:08;15.25;;;8.80;;
74469;SDS011;62918;55.706;37.816;2022-10-23T03:06:39;12.82;;;8.27;;
74469;SDS011;62918;55.706;37.816;2022-10-23T03:07:11;16.33;;;8.85;;
74469;SDS011;62918;55.706;37.816;2022-10-23T03:07:42;16.80;;;9.43;;
74469;SDS011;62918;55.706;37.816;2022-10-23T03:08:13;15.05;;;8.95;;
74469;SDS011;62918;55.706;37.816;2022-10-23T03:08:48;15.43;;;8.27;;
74469;SDS011;62918;55.706;37.816;2022-10-23T03:09:24;13.70;;;8.13;;
74469;SDS011;62918;55.706;37.816;2022-10-23T03:09:55;16.70;;;8.88;;
74469;SDS011;62918;55.706;37.816;2022-10-23T03:10:26;16.30;;;8.38;;
74469;SDS011;62918;55.706;37.816;2022-10-23T03:10:56;15.63;;;9.20;;
74469;SDS011;62918;55.706;37.816;2022-10-23T03:11:27;15.32;;;8.73;;
74469;SDS011;62918;55.706;37.816;2022-10-23T03:11:57;15.45;;;8.85;;
74469;SDS011;62918;55.706;37.816;2022-10-23T03:12:28;16.20;;;8.85;;
74469;SDS011;62918;55.706;37.816;2022-10-23T03:12:58;15.70;;;9.52;;
74469;SDS011;62918;55.706;37.816;2022-10-23T03:13:29;15.43;;;9.10;;
74469;SDS011;62918;55.706;37.816;2022-10-23T03:14:00;15.60;;;8.05;;
74469;SDS011;62918;55.706;37.816;2022-10-23T03:14:30;15.40;;;9.40;;
74469;SDS011;62918;55.706;37.816;2022-10-23T03:15:01;16.08;;;8.98;;
74469;SDS011;62918;55.706;37.816;2022-10-23T03:15:33;13.82;;;8.98;;
74469;SDS011;62918;55.706;37.816;2022-10-23T03:16:04;16.10;;;8.63;;
74469;SDS011;62918;55.706;37.816;2022-10-23T03:16:35;15.40;;;8.88;;
74469;SDS011;62918;55.706;37.816;2022-10-23T03:17:05;14.60;;;9.02;;
74469;SDS011;62918;55.706;37.816;2022-10-23T03:17:36;14.95;;;8.32;;
74469;SDS011;62918;55.706;37.816;2022-10-23T03:18:07;15.40;;;8.80;;
74469;SDS011;62918;55.706;37.816;2022-10-23T03:18:37;15.10;;;8.63;;
74469;SDS011;62918;55.706;37.816;2022-10-23T03:19:08;13.50;;;8.90;;
74469;SDS011;62918;55.706;37.816;2022-10-23T03:19:40;17.05;;;9.30;;
74469;SDS011;62918;55.706;37.816;2022-10-23T03:20:10;15.73;;;9.23;;
74469;SDS011;62918;55.706;37.816;2022-10-23T03:20:41;17.23;;;9.40;;
74469;SDS011;62918;55.706;37.816;2022-10-23T03:21:11;15.98;;;9.05;;
74469;SDS011;62918;55.706;37.816;2022-10-23T03:21:42;15.93;;;9.10;;
74469;SDS011;62918;55.706;37.816;2022-10-23T03:22:12;19.73;;;9.05;;
74469;SDS011;62918;55.706;37.816;2022-10-23T03:22:43;16.48;;;8.98;;
74469;SDS011;62918;55.706;37.816;2022-10-23T03:23:13;16.20;;;9.70;;
74469;SDS011;62918;55.706;37.816;2022-10-23T03:23:44;13.50;;;8.75;;
74469;SDS011;62918;55.706;37.816;2022-10-23T03:24:14;15.52;;;9.68;;
74469;SDS011;62918;55.706;37.816;2022-10-23T03:24:45;17.48;;;8.73;;
74469;SDS011;62918;55.706;37.816;2022-10-23T03:25:16;15.75;;;9.38;;
74469;SDS011;62918;55.706;37.816;2022-10-23T03:25:46;15.23;;;8.55;;
74469;SDS011;62918;55.706;37.816;2022-10-23T03:26:17;14.90;;;9.00;;
74469;SDS011;62918;55.706;37.816;2022-10-23T03:26:47;13.77;;;8.38;;
74469;SDS011;62918;55.706;37.816;2022-10-23T03:27:18;12.82;;;8.35;;
74469;SDS011;62918;55.706;37.816;2022-10-23T03:27:48;16.98;;;10.43;;
74469;SDS011;62918;55.706;37.816;2022-10-23T03:28:19;17.48;;;9.05;;
74469;SDS011;62918;55.706;37.816;2022-10-23T03:28:49;14.75;;;9.52;;
74469;SDS011;62918;55.706;37.816;2022-10-23T03:29:20;15.38;;;9.18;;
74469;SDS011;62918;55.706;37.816;2022-10-23T03:29:50;15.93;;;8.90;;
74469;SDS011;62918;55.706;37.816;2022-10-23T03:30:21;14.65;;;8.63;;
74469;SDS011;62918;55.706;37.816;2022-10-23T03:30:51;13.68;;;8.27;;
74469;SDS011;62918;55.706;37.816;2022-10-23T03:31:22;17.67;;;8.63;;
74469;SDS011;62918;55.706;37.816;2022-10-23T03:31:52;14.07;;;8.23;;
74469;SDS011;62918;55.706;37.816;2022-10-23T03:32:24;15.95;;;8.95;;
74469;SDS011;62918;55.706;37.816;2022-10-23T03:32:55;15.60;;;8.65;;
74469;SDS011;62918;55.706;37.816;2022-10-23T03:33:25;15.55;;;9.10;;
74469;SDS011;62918;55.706;37.816;2022-10-23T03:33:56;15.75;;;9.13;;
74469;SDS011;62918;55.706;37.816;2022-10-23T03:34:26;14.10;;;9.25;;
74469;SDS011;62918;55.706;37.816;2022-10-23T03:34:57;17.15;;;9.25;;
74469;SDS011;62918;55.706;37.816;2022-10-23T03:35:27;14.40;;;8.88;;
74469;SDS011;62918;55.706;37.816;2022-10-23T03:35:58;14.43;;;9.55;;
74469;SDS011;62918;55.706;37.816;2022-10-23T03:36:28;15.68;;;9.25;;
74469;SDS011;62918;55.706;37.816;2022-10-23T03:36:59;13.68;;;9.10;;
74469;SDS011;62918;55.706;37.816;2022-10-23T03:37:30;14.73;;;9.13;;
74469;SDS011;62918;55.706;37.816;2022-10-23T03:38:00;16.13;;;9.70;;
74469;SDS011;62918;55.706;37.816;2022-10-23T03:38:31;15.80;;;9.25;;
74469;SDS011;62918;55.706;37.816;2022-10-23T03:39:01;16.23;;;9.15;;
74469;SDS011;62918;55.706;37.816;2022-10-23T03:39:33;16.00;;;8.77;;
74469;SDS011;62918;55.706;37.816;2022-10-23T03:40:04;15.48;;;9.15;;
74469;SDS011;62918;55.706;37.816;2022-10-23T03:40:35;15.45;;;9.20;;
74469;SDS011;62918;55.706;37.816;2022-10-23T03:41:05;14.32;;;8.93;;
74469;SDS011;62918;55.706;37.816;2022-10-23T03:41:36;15.48;;;9.35;;
74469;SDS011;62918;55.706;37.816;2022-10-23T03:42:06;16.67;;;9.02;;
74469;SDS011;62918;55.706;37.816;2022-10-23T03:42:37;16.05;;;9.60;;
74469;SDS011;62918;55.706;37.816;2022-10-23T03:43:07;14.75;;;9.13;;
74469;SDS011;62918;55.706;37.816;2022-10-23T03:43:38;14.18;;;9.25;;
74469;SDS011;62918;55.706;37.816;2022-10-23T03:44:08;13.52;;;8.85;;
74469;SDS011;62918;55.706;37.816;2022-10-23T03:44:39;14.30;;;8.98;;
74469;SDS011;62918;55.706;37.816;2022-10-23T03:45:09;15.57;;;9.18;;
74469;SDS011;62918;55.706;37.816;2022-10-23T03:45:40;17.67;;;9.15;;
74469;SDS011;62918;55.706;37.816;2022-10-23T03:46:10;16.40;;;9.20;;
74469;SDS011;62918;55.706;37.816;2022-10-23T03:46:42;14.25;;;8.82;;
74469;SDS011;62918;55.706;37.816;2022-10-23T03:47:12;16.02;;;9.07;;
74469;SDS011;62918;55.706;37.816;2022-10-23T03:47:43;14.88;;;9.23;;
74469;SDS011;62918;55.706;37.816;2022-10-23T03:48:14;14.85;;;8.70;;
74469;SDS011;62918;55.706;37.816;2022-10-23T03:48:44;12.98;;;8.93;;
74469;SDS011;62918;55.706;37.816;2022-10-23T03:49:15;15.02;;;9.25;;
74469;SDS011;62918;55.706;37.816;2022-10-23T03:49:45;15.88;;;8.98;;
74469;SDS011;62918;55.706;37.816;2022-10-23T03:50:16;14.85;;;8.63;;
74469;SDS011;62918;55.706;37.816;2022-10-23T03:50:48;13.23;;;8.75;;
74469;SDS011;62918;55.706;37.816;2022-10-23T03:51:19;17.90;;;9.63;;
74469;SDS011;62918;55.706;37.816;2022-10-23T03:51:49;15.25;;;9.68;;